createdAt,value
2023-03-20T00:00:24.477Z,101760.97
2023-03-20T00:02:58.074Z,101748.59
2023-03-20T00:05:28.323Z,101751.91
2023-03-20T00:08:02.034Z,101760.00
2023-03-20T00:10:46.029Z,101753.84
2023-03-20T00:13:35.104Z,101757.25
2023-03-20T00:16:01.801Z,101741.00
2023-03-20T00:18:36.098Z,101760.00
2023-03-20T00:21:09.117Z,101745.94
2023-03-20T00:23:36.131Z,101751.19
2023-03-20T00:26:09.053Z,101749.47
2023-03-20T00:28:40.855Z,101749.47
2023-03-20T00:31:33.129Z,101745.44
2023-03-20T00:34:02.414Z,101755.63
2023-03-20T00:36:35.075Z,101742.69
2023-03-20T00:39:02.030Z,101740.63
2023-03-20T00:41:39.139Z,101750.41
2023-03-20T00:44:28.211Z,101753.06
2023-03-20T00:47:09.122Z,101762.84
2023-03-20T00:49:36.219Z,101766.53
2023-03-20T00:52:11.049Z,101762.44
2023-03-20T00:54:37.622Z,101753.13
2023-03-20T00:57:16.110Z,101758.69
2023-03-20T00:59:53.439Z,101775.84
2023-03-20T01:02:28.202Z,101772.69
2023-03-20T01:05:02.201Z,101787.66
2023-03-20T01:07:28.904Z,101788.72
2023-03-20T01:10:02.069Z,101790.59
2023-03-20T01:12:35.121Z,101793.44
2023-03-20T01:15:08.122Z,101796.25
2023-03-20T01:17:34.694Z,101798.91
2023-03-20T01:20:08.145Z,101799.19
2023-03-20T01:22:34.658Z,101797.44
2023-03-20T01:25:08.203Z,101802.22
2023-03-20T01:27:34.842Z,101794.59
2023-03-20T01:30:08.212Z,101793.91
2023-03-20T01:32:34.918Z,101786.97
2023-03-20T01:35:08.131Z,101789.63
2023-03-20T01:37:34.782Z,101779.50
2023-03-20T01:40:08.070Z,101796.03
2023-03-20T01:42:34.698Z,101790.03
2023-03-20T01:45:08.129Z,101809.50
2023-03-20T01:47:42.223Z,101820.13
2023-03-20T01:50:35.180Z,101829.78
2023-03-20T01:53:25.029Z,101836.06
2023-03-20T01:56:02.129Z,101837.84
2023-03-20T01:58:44.252Z,101836.97
2023-03-20T02:01:20.140Z,101829.88
2023-03-20T02:03:50.029Z,101823.78
2023-03-20T02:06:23.110Z,101826.53
2023-03-20T02:08:52.402Z,101828.31
2023-03-20T02:11:29.155Z,101826.53
2023-03-20T02:14:05.096Z,101823.00
2023-03-20T02:16:31.704Z,101821.22
2023-03-20T02:19:05.161Z,101800.41
2023-03-20T02:21:56.517Z,101805.56
2023-03-20T02:25:01.125Z,101808.25
2023-03-20T02:27:54.177Z,101814.34
2023-03-20T02:30:49.198Z,101806.38
2023-03-20T02:33:22.140Z,101818.88
2023-03-20T02:36:06.714Z,101788.94
2023-03-20T02:39:03.161Z,101793.38
2023-03-20T02:41:39.190Z,101790.03
2023-03-20T02:44:39.123Z,101784.81
2023-03-20T02:47:27.110Z,101787.47
2023-03-20T02:50:07.254Z,101779.59
2023-03-20T02:52:49.185Z,101760.38
2023-03-20T02:55:18.418Z,101752.28
2023-03-20T02:58:07.170Z,101749.75
2023-03-20T03:00:54.158Z,101740.00
2023-03-20T03:03:41.234Z,101750.72
2023-03-20T03:06:30.205Z,101761.34
2023-03-20T03:09:12.787Z,101751.81
2023-03-20T03:11:52.183Z,101741.38
2023-03-20T03:14:53.190Z,101761.41
2023-03-20T03:17:30.141Z,101759.69
2023-03-20T03:20:02.483Z,101757.13
2023-03-20T03:22:36.149Z,101764.16
2023-03-20T03:25:09.235Z,101752.69
2023-03-20T03:27:40.490Z,101749.25
2023-03-20T03:30:28.259Z,101754.66
2023-03-20T03:33:22.223Z,101759.78
2023-03-20T03:35:56.203Z,101748.38
2023-03-20T03:38:39.183Z,101759.00
2023-03-20T03:41:39.179Z,101759.88
2023-03-20T03:44:35.198Z,101756.53
2023-03-20T03:47:14.226Z,101743.50
2023-03-20T03:49:46.178Z,101742.38
2023-03-20T03:52:26.163Z,101745.91
2023-03-20T03:55:08.177Z,101747.59
2023-03-20T03:57:51.310Z,101728.34
2023-03-20T04:00:22.658Z,101731.69
2023-03-20T04:03:00.209Z,101727.41
2023-03-20T04:05:38.360Z,101726.47
2023-03-20T04:08:06.493Z,101726.53
2023-03-20T04:10:40.229Z,101726.63
2023-03-20T04:13:06.930Z,101717.03
2023-03-20T04:15:40.345Z,101717.91
2023-03-20T04:18:13.145Z,101723.28
2023-03-20T04:20:46.216Z,101728.69
2023-03-20T04:23:20.234Z,101724.38
2023-03-20T04:25:54.152Z,101732.44
2023-03-20T04:28:20.773Z,101720.28
2023-03-20T04:31:03.219Z,101728.31
2023-03-20T04:33:36.209Z,101720.53
2023-03-20T04:36:09.821Z,101718.88
2023-03-20T04:38:43.233Z,101705.19
2023-03-20T04:41:09.915Z,101717.41
2023-03-20T04:43:43.269Z,101708.16
2023-03-20T04:46:10.009Z,101723.75
2023-03-20T04:48:50.226Z,101725.63
2023-03-20T04:51:23.347Z,101721.44
2023-03-20T04:53:56.175Z,101721.44
2023-03-20T04:56:29.321Z,101726.81
2023-03-20T04:58:55.957Z,101719.91
2023-03-20T05:01:30.282Z,101718.34
2023-03-20T05:04:01.009Z,101730.56
2023-03-20T05:06:38.213Z,101720.91
2023-03-20T05:09:05.572Z,101709.59
2023-03-20T05:11:38.198Z,101722.94
2023-03-20T05:14:05.217Z,101724.66
2023-03-20T05:16:45.315Z,101714.38
2023-03-20T05:19:11.928Z,101717.03
2023-03-20T05:21:38.410Z,101700.66
2023-03-20T05:24:12.223Z,101710.09
2023-03-20T05:26:45.268Z,101716.25
2023-03-20T05:29:11.945Z,101715.38
2023-03-20T05:31:45.202Z,101696.31
2023-03-20T05:34:11.757Z,101706.66
2023-03-20T05:36:45.271Z,101722.47
2023-03-20T05:39:11.844Z,101715.47
2023-03-20T05:41:38.508Z,101719.13
2023-03-20T05:44:12.327Z,101717.34
2023-03-20T05:46:59.252Z,101720.00
2023-03-20T05:49:32.251Z,101715.00
2023-03-20T05:51:58.874Z,101727.25
2023-03-20T05:54:32.245Z,101724.00
2023-03-20T05:56:59.322Z,101734.25
2023-03-20T05:59:33.224Z,101734.25
2023-03-20T06:01:59.816Z,101729.03
2023-03-20T06:04:33.273Z,101739.56
2023-03-20T06:06:59.900Z,101742.22
2023-03-20T06:09:33.312Z,101740.50
2023-03-20T06:12:07.242Z,101749.41
2023-03-20T06:14:40.298Z,101744.13
2023-03-20T06:17:06.941Z,101737.00
2023-03-20T06:19:33.578Z,101744.94
2023-03-20T06:22:07.276Z,101743.34
2023-03-20T06:24:34.481Z,101742.47
2023-03-20T06:27:07.277Z,101751.97
2023-03-20T06:29:34.046Z,101766.84
2023-03-20T06:32:07.193Z,101753.50
2023-03-20T06:34:34.009Z,101753.47
2023-03-20T06:37:07.264Z,101758.59
2023-03-20T06:39:33.841Z,101755.69
2023-03-20T06:42:07.234Z,101753.03
2023-03-20T06:44:33.817Z,101755.56
2023-03-20T06:47:13.286Z,101764.22
2023-03-20T06:49:46.374Z,101755.31
2023-03-20T06:52:24.248Z,101765.81
2023-03-20T06:55:21.276Z,101756.00
2023-03-20T06:57:54.528Z,101764.72
2023-03-20T07:00:28.295Z,101768.16
2023-03-20T07:03:02.453Z,101765.34
2023-03-20T07:05:29.062Z,101764.66
2023-03-20T07:08:02.316Z,101772.28
2023-03-20T07:10:35.246Z,101765.44
2023-03-20T07:13:02.083Z,101780.09
2023-03-20T07:15:36.508Z,101779.22
2023-03-20T07:18:03.309Z,101779.91
2023-03-20T07:20:36.270Z,101780.59
2023-03-20T07:23:02.853Z,101777.19
2023-03-20T07:25:42.874Z,101774.56
2023-03-20T07:28:10.011Z,101780.56
2023-03-20T07:30:43.315Z,101769.84
2023-03-20T07:33:10.173Z,101773.34
2023-03-20T07:35:43.318Z,101773.28
2023-03-20T07:38:10.095Z,101773.28
2023-03-20T07:40:37.081Z,101777.47
2023-03-20T07:43:10.254Z,101768.59
2023-03-20T07:45:37.245Z,101766.72
2023-03-20T07:48:10.356Z,101769.38
2023-03-20T07:50:37.211Z,101770.88
2023-03-20T07:53:10.297Z,101773.31
2023-03-20T07:55:37.207Z,101773.13
2023-03-20T07:58:10.292Z,101771.16
2023-03-20T08:00:37.054Z,101770.25
2023-03-20T08:03:10.356Z,101767.41
2023-03-20T08:05:38.031Z,101771.38
2023-03-20T08:08:11.333Z,101761.69
2023-03-20T08:10:38.067Z,101768.13
2023-03-20T08:13:11.346Z,101758.28
2023-03-20T08:15:44.358Z,101771.72
2023-03-20T08:18:18.618Z,101757.84
2023-03-20T08:21:01.306Z,101773.34
2023-03-20T08:23:28.140Z,101775.56
2023-03-20T08:26:08.385Z,101776.28
2023-03-20T08:28:50.902Z,101769.34
2023-03-20T08:31:25.353Z,101778.94
2023-03-20T08:33:52.278Z,101784.25
2023-03-20T08:36:28.333Z,101786.72
2023-03-20T08:39:01.398Z,101763.69
2023-03-20T08:41:34.306Z,101767.63
2023-03-20T08:44:01.693Z,101778.31
2023-03-20T08:46:34.400Z,101771.47
2023-03-20T08:49:07.432Z,101772.41
2023-03-20T08:51:47.324Z,101773.00
2023-03-20T08:54:16.408Z,101773.66
2023-03-20T08:56:49.302Z,101768.00
2023-03-20T08:59:16.516Z,101776.47
2023-03-20T09:02:00.393Z,101769.38
2023-03-20T09:04:27.999Z,101777.00
2023-03-20T09:09:37.322Z,101774.63
2023-03-20T09:12:10.372Z,101776.84
2023-03-20T09:14:45.362Z,101782.09
2023-03-20T09:17:12.171Z,101781.97
2023-03-20T09:19:51.366Z,101779.31
2023-03-20T09:22:20.912Z,101782.66
2023-03-20T09:24:54.400Z,101781.28
2023-03-20T09:27:21.716Z,101780.41
2023-03-20T09:29:55.435Z,101778.44
2023-03-20T09:32:22.045Z,101790.00
2023-03-20T09:34:55.319Z,101777.28
2023-03-20T09:37:22.016Z,101778.25
2023-03-20T09:39:55.373Z,101786.72
2023-03-20T09:42:47.364Z,101790.63
2023-03-20T09:45:34.290Z,101779.69
2023-03-20T09:48:18.295Z,101784.00
2023-03-20T09:51:25.422Z,101782.00
2023-03-20T09:54:32.460Z,101778.28
2023-03-20T09:57:35.524Z,101781.03
2023-03-20T10:00:10.419Z,101784.09
2023-03-20T10:02:54.380Z,101777.44
2023-03-20T10:05:28.159Z,101780.38
2023-03-20T10:08:03.351Z,101762.81
2023-03-20T10:10:39.062Z,101768.31
2023-03-20T10:13:27.362Z,101771.16
2023-03-20T10:16:12.484Z,101760.31
2023-03-20T10:18:50.342Z,101771.59
2023-03-20T10:21:24.991Z,101767.13
2023-03-20T10:24:09.362Z,101769.59
2023-03-20T10:26:44.429Z,101765.25
2023-03-20T10:29:29.295Z,101770.91
2023-03-20T10:32:19.335Z,101760.16
2023-03-20T10:35:16.348Z,101765.16
2023-03-20T10:37:59.014Z,101755.28
2023-03-20T10:40:36.858Z,101754.03
2023-03-20T10:43:18.364Z,101762.38
2023-03-20T10:45:53.377Z,101751.06
2023-03-20T10:48:33.927Z,101753.81
2023-03-20T10:51:21.446Z,101749.72
2023-03-20T10:53:56.932Z,101738.72
2023-03-20T10:56:37.537Z,101755.91
2023-03-20T10:59:08.883Z,101755.25
2023-03-20T11:01:42.382Z,101748.91
2023-03-20T11:04:15.413Z,101748.91
2023-03-20T11:06:53.368Z,101753.38
2023-03-20T11:09:26.851Z,101758.41
2023-03-20T11:12:04.342Z,101739.78
2023-03-20T11:14:37.834Z,101762.78
2023-03-20T11:17:12.365Z,101758.84
2023-03-20T11:19:47.431Z,101764.06
2023-03-20T11:22:26.303Z,101767.44
2023-03-20T11:25:02.353Z,101761.25
2023-03-20T11:27:34.589Z,101766.38
2023-03-20T11:30:11.397Z,101774.25
2023-03-20T11:32:46.666Z,101767.44
2023-03-20T11:35:37.416Z,101763.34
2023-03-20T11:38:13.965Z,101764.16
2023-03-20T11:40:47.404Z,101776.69
2023-03-20T11:43:25.473Z,101769.59
2023-03-20T11:46:07.452Z,101764.25
2023-03-20T11:48:48.100Z,101758.56
2023-03-20T11:51:27.362Z,101756.56
2023-03-20T11:54:05.654Z,101756.09
2023-03-20T11:56:40.390Z,101756.41
2023-03-20T11:59:06.882Z,101758.97
2023-03-20T12:01:53.419Z,101764.72
2023-03-20T12:04:30.883Z,101763.84
2023-03-20T12:07:17.452Z,101769.72
2023-03-20T12:09:58.401Z,101765.84
2023-03-20T12:12:49.421Z,101766.97
2023-03-20T12:15:26.554Z,101751.84
2023-03-20T12:18:38.488Z,101757.75
2023-03-20T12:21:19.581Z,101753.56
2023-03-20T12:24:08.425Z,101759.84
2023-03-20T12:27:15.119Z,101756.97
2023-03-20T12:30:16.429Z,101757.16
2023-03-20T12:33:48.451Z,101752.63
2023-03-20T12:36:18.626Z,101741.09
2023-03-20T12:38:52.497Z,101733.53
2023-03-20T12:41:31.005Z,101741.78
2023-03-20T12:44:09.426Z,101736.84
2023-03-20T12:47:01.936Z,101735.66
2023-03-20T12:49:59.406Z,101731.03
2023-03-20T12:53:08.544Z,101729.13
2023-03-20T12:55:47.602Z,101737.09
2023-03-20T12:58:35.704Z,101732.75
2023-03-20T13:01:26.546Z,101734.44
2023-03-20T13:04:23.048Z,101727.53
2023-03-20T13:07:11.492Z,101710.88
2023-03-20T13:10:12.585Z,101719.06
2023-03-20T13:13:03.024Z,101717.16
2023-03-20T13:16:14.453Z,101712.69
2023-03-20T13:19:12.490Z,101709.56
2023-03-20T13:21:57.455Z,101693.88
2023-03-20T13:24:47.527Z,101705.53
2023-03-20T13:27:14.099Z,101699.38
2023-03-20T13:30:08.561Z,101689.97
2023-03-20T13:32:57.524Z,101690.94
2023-03-20T13:35:59.517Z,101694.34
2023-03-20T13:38:41.531Z,101688.66
2023-03-20T13:41:10.689Z,101687.69
2023-03-20T13:43:48.457Z,101687.88
2023-03-20T13:46:19.313Z,101684.28
2023-03-20T13:49:00.508Z,101682.38
2023-03-20T13:51:33.690Z,101687.97
2023-03-20T13:54:49.459Z,101687.22
2023-03-20T13:57:44.891Z,101689.50
2023-03-20T14:00:38.751Z,101687.50
2023-03-20T14:03:31.529Z,101688.53
2023-03-20T14:06:05.442Z,101681.69
2023-03-20T14:08:36.800Z,101674.78
2023-03-20T14:11:13.458Z,101676.84
2023-03-20T14:13:44.773Z,101671.31
2023-03-20T14:16:22.512Z,101673.41
2023-03-20T14:19:05.841Z,101669.31
2023-03-20T14:21:41.480Z,101680.72
2023-03-20T14:24:14.249Z,101676.88
2023-03-20T14:26:49.476Z,101674.66
2023-03-20T14:29:16.089Z,101670.41
2023-03-20T14:31:51.473Z,101671.50
2023-03-20T14:34:23.463Z,101670.25
2023-03-20T14:37:09.491Z,101676.59
2023-03-20T14:40:18.547Z,101668.81
2023-03-20T14:43:20.541Z,101667.03
2023-03-20T14:45:52.374Z,101660.16
2023-03-20T14:48:48.565Z,101666.25
2023-03-20T14:51:34.584Z,101667.28
2023-03-20T14:54:37.514Z,101662.72
2023-03-20T14:57:55.125Z,101675.34
2023-03-20T15:00:33.599Z,101657.75
2023-03-20T15:03:15.437Z,101665.66
2023-03-20T15:05:48.513Z,101656.25
2023-03-20T15:08:22.245Z,101669.53
2023-03-20T15:11:00.635Z,101660.09
2023-03-20T15:13:29.213Z,101663.88
2023-03-20T15:16:13.593Z,101660.81
2023-03-20T15:18:44.015Z,101653.09
2023-03-20T15:21:27.643Z,101664.47
2023-03-20T15:23:54.314Z,101652.91
2023-03-20T15:26:29.485Z,101655.75
2023-03-20T15:29:13.494Z,101653.88
2023-03-20T15:31:47.514Z,101660.03
2023-03-20T15:34:27.159Z,101644.25
2023-03-20T15:37:04.506Z,101651.13
2023-03-20T15:39:42.723Z,101644.19
2023-03-20T15:42:22.574Z,101651.81
2023-03-20T15:44:58.492Z,101641.38
2023-03-20T15:47:32.547Z,101637.75
2023-03-20T15:50:12.753Z,101644.13
2023-03-20T15:52:50.552Z,101643.25
2023-03-20T15:55:34.533Z,101642.47
2023-03-20T15:58:09.534Z,101640.00
2023-03-20T16:00:44.222Z,101634.59
2023-03-20T16:03:25.586Z,101640.78
2023-03-20T16:05:53.602Z,101630.25
2023-03-20T16:08:37.488Z,101634.50
2023-03-20T16:11:10.655Z,101638.94
2023-03-20T16:13:50.546Z,101628.78
2023-03-20T16:16:31.558Z,101635.81
2023-03-20T16:18:59.391Z,101632.38
2023-03-20T16:21:36.498Z,101635.31
2023-03-20T16:24:09.219Z,101635.53
2023-03-20T16:26:49.588Z,101628.72
2023-03-20T16:29:24.618Z,101632.56
2023-03-20T16:32:13.566Z,101628.09
2023-03-20T16:34:47.574Z,101626.38
2023-03-20T16:37:37.581Z,101620.50
2023-03-20T16:40:19.514Z,101629.22
2023-03-20T16:42:46.531Z,101622.97
2023-03-20T16:45:36.596Z,101625.69
2023-03-20T16:48:23.612Z,101616.88
2023-03-20T16:51:10.587Z,101621.16
2023-03-20T16:53:48.549Z,101610.66
2023-03-20T16:56:26.232Z,101621.25
2023-03-20T16:58:59.563Z,101609.97
2023-03-20T17:01:35.539Z,101610.81
2023-03-20T17:04:20.605Z,101610.97
2023-03-20T17:06:57.584Z,101609.00
2023-03-20T17:09:37.489Z,101603.88
2023-03-20T17:12:24.543Z,101607.31
2023-03-20T17:14:57.494Z,101605.50
2023-03-20T17:17:31.556Z,101595.06
2023-03-20T17:20:05.559Z,101595.06
2023-03-20T17:22:33.590Z,101604.38
2023-03-20T17:25:06.527Z,101610.66
2023-03-20T17:27:34.423Z,101613.31
2023-03-20T17:30:09.372Z,101608.91
2023-03-20T17:32:38.019Z,101616.06
2023-03-20T17:35:11.640Z,101619.28
2023-03-20T17:37:45.595Z,101624.50
2023-03-20T17:40:37.828Z,101626.38
2023-03-20T17:43:15.560Z,101631.53
2023-03-20T17:45:50.621Z,101634.84
2023-03-20T17:48:37.617Z,101633.16
2023-03-20T17:51:10.583Z,101632.09
2023-03-20T17:53:57.778Z,101637.41
2023-03-20T17:56:39.613Z,101634.63
2023-03-20T17:59:06.821Z,101628.44
2023-03-20T18:01:39.709Z,101633.56
2023-03-20T18:04:06.328Z,101630.91
2023-03-20T18:06:40.603Z,101629.31
2023-03-20T18:09:09.009Z,101634.63
2023-03-20T18:11:42.608Z,101630.22
2023-03-20T18:14:09.156Z,101630.31
2023-03-20T18:16:35.916Z,101624.59
2023-03-20T18:19:09.595Z,101622.63
2023-03-20T18:21:36.146Z,101628.03
2023-03-20T18:24:09.625Z,101625.44
2023-03-20T18:26:36.336Z,101629.13
2023-03-20T18:29:09.621Z,101631.78
2023-03-20T18:31:37.114Z,101630.16
2023-03-20T18:34:11.536Z,101626.56
2023-03-20T18:36:44.627Z,101622.03
2023-03-20T18:39:29.549Z,101615.19
2023-03-20T18:41:56.306Z,101621.16
2023-03-20T18:44:29.636Z,101620.22
2023-03-20T18:46:56.851Z,101627.16
2023-03-20T18:49:36.600Z,101626.22
2023-03-20T18:52:16.604Z,101628.88
2023-03-20T18:54:55.972Z,101634.06
2023-03-20T18:57:29.594Z,101621.78
2023-03-20T18:59:56.268Z,101624.41
2023-03-20T19:02:29.617Z,101626.13
2023-03-20T19:04:56.538Z,101626.13
2023-03-20T19:07:29.625Z,101622.44
2023-03-20T19:09:56.441Z,101630.31
2023-03-20T19:12:29.673Z,101622.19
2023-03-20T19:14:56.552Z,101617.81
2023-03-20T19:17:29.703Z,101617.72
2023-03-20T19:20:02.628Z,101616.03
2023-03-20T19:22:35.671Z,101618.59
2023-03-20T19:25:02.422Z,101620.28
2023-03-20T19:27:35.696Z,101620.22
2023-03-20T19:30:02.641Z,101614.84
2023-03-20T19:32:35.650Z,101611.13
2023-03-20T19:35:46.835Z,101613.78
2023-03-20T19:37:56.297Z,101612.00
2023-03-20T19:40:31.526Z,101604.72
2023-03-20T19:43:03.444Z,101615.16
2023-03-20T19:45:39.679Z,101608.16
2023-03-20T19:48:50.217Z,101609.69
2023-03-20T19:51:31.712Z,101593.00
2023-03-20T19:54:04.675Z,101602.31
2023-03-20T19:56:31.636Z,101593.38
2023-03-20T19:59:04.690Z,101604.88
2023-03-20T20:01:38.719Z,101599.56
2023-03-20T20:04:12.606Z,101602.03
2023-03-20T20:06:42.003Z,101601.00
2023-03-20T20:09:15.625Z,101599.38
2023-03-20T20:11:56.007Z,101598.25
2023-03-20T20:14:28.651Z,101586.53
2023-03-20T20:17:02.766Z,101589.09
2023-03-20T20:19:29.491Z,101592.44
2023-03-20T20:22:20.029Z,101576.59
2023-03-20T20:24:50.449Z,101578.84
2023-03-20T20:27:25.654Z,101577.56
2023-03-20T20:29:59.708Z,101581.84
2023-03-20T20:32:35.839Z,101573.88
2023-03-20T20:38:36.676Z,101580.47
2023-03-20T20:40:51.632Z,101582.88
2023-03-20T20:43:48.508Z,101574.72
2023-03-20T20:46:11.456Z,101570.25
2023-03-20T20:48:47.620Z,101574.59
2023-03-20T20:51:22.539Z,101581.63
2023-03-20T20:53:55.722Z,101578.03
2023-03-20T20:56:22.322Z,101583.16
2023-03-20T20:58:55.775Z,101583.91
2023-03-20T21:01:22.527Z,101582.97
2023-03-20T21:03:55.722Z,101586.47
2023-03-20T21:06:22.809Z,101582.03
2023-03-20T21:08:55.710Z,101580.25
2023-03-20T21:11:28.727Z,101579.09
2023-03-20T21:14:02.718Z,101566.94
2023-03-20T21:16:31.217Z,101577.28
2023-03-20T21:19:04.778Z,101569.97
2023-03-20T21:21:31.534Z,101573.41
2023-03-20T21:24:05.932Z,101577.00
2023-03-20T21:26:38.729Z,101564.56
2023-03-20T21:29:05.729Z,101570.75
2023-03-20T21:31:38.783Z,101572.38
2023-03-20T21:34:06.293Z,101574.16
2023-03-20T21:36:48.668Z,101578.53
2023-03-20T21:39:23.084Z,101572.44
2023-03-20T21:42:01.715Z,101575.69
2023-03-20T21:48:18.581Z,101568.56
2023-03-20T21:50:48.342Z,101566.00
2023-03-20T21:54:17.688Z,101568.56
2023-03-20T21:56:42.275Z,101560.22
2023-03-20T21:59:38.250Z,101547.19
2023-03-20T22:08:08.910Z,101565.06
2023-03-20T22:14:02.642Z,101543.97
2023-03-20T22:22:34.362Z,101560.69
2023-03-20T22:25:25.867Z,101562.47
2023-03-20T22:28:22.484Z,101578.25
2023-03-20T22:31:24.051Z,101556.34
2023-03-20T22:37:04.403Z,101571.13
2023-03-20T22:39:43.054Z,101561.44
2023-03-20T22:42:32.930Z,101559.81
2023-03-20T22:45:02.112Z,101564.97
2023-03-20T22:47:40.781Z,101562.41
2023-03-20T22:50:21.099Z,101568.47
2023-03-20T22:52:54.800Z,101557.00
2023-03-20T22:55:23.490Z,101551.69
2023-03-20T22:58:06.827Z,101558.78
2023-03-20T23:00:36.030Z,101555.09
2023-03-20T23:03:22.364Z,101559.47
2023-03-20T23:05:53.809Z,101551.59
2023-03-20T23:08:28.124Z,101562.13
2023-03-20T23:10:54.839Z,101554.13
2023-03-20T23:13:28.702Z,101553.28
2023-03-20T23:15:55.332Z,101555.94
2023-03-20T23:18:28.732Z,101549.69
2023-03-20T23:21:05.785Z,101549.69
2023-03-20T23:23:39.710Z,101552.34
2023-03-20T23:26:15.798Z,101554.03
2023-03-20T23:28:52.784Z,101554.03
2023-03-20T23:31:22.796Z,101551.38
2023-03-20T23:33:58.779Z,101549.59
2023-03-20T23:36:36.897Z,101548.81
2023-03-20T23:39:15.881Z,101552.25
2023-03-20T23:42:07.809Z,101547.78
2023-03-20T23:44:49.901Z,101538.09
2023-03-20T23:47:22.716Z,101539.63
2023-03-20T23:50:02.755Z,101544.84
2023-03-20T23:52:29.452Z,101552.72
2023-03-20T23:55:02.786Z,101535.84
2023-03-20T23:57:35.743Z,101541.88
